createdAt,value
2023-10-26T00:00:51.790Z,982.31
2023-10-26T00:01:51.797Z,982.28
2023-10-26T00:02:51.883Z,982.25
2023-10-26T00:03:51.878Z,982.27
2023-10-26T00:04:51.778Z,982.31
2023-10-26T00:05:51.765Z,982.29
2023-10-26T00:06:51.754Z,982.30
2023-10-26T00:07:51.720Z,982.30
2023-10-26T00:08:51.760Z,982.31
2023-10-26T00:09:51.703Z,982.25
2023-10-26T00:10:51.716Z,982.24
2023-10-26T00:11:51.738Z,982.34
2023-10-26T00:12:51.696Z,982.30
2023-10-26T00:13:51.656Z,982.31
2023-10-26T00:14:51.691Z,982.28
2023-10-26T00:15:51.635Z,982.32
2023-10-26T00:16:51.656Z,982.33
2023-10-26T00:17:51.752Z,982.31
2023-10-26T00:18:51.655Z,982.35
2023-10-26T00:19:51.617Z,982.34
2023-10-26T00:20:51.612Z,982.43
2023-10-26T00:21:51.608Z,982.36
2023-10-26T00:22:51.578Z,982.40
2023-10-26T00:23:51.599Z,982.36
2023-10-26T00:24:51.554Z,982.35
2023-10-26T00:25:51.541Z,982.37
2023-10-26T00:26:51.556Z,982.37
2023-10-26T00:27:51.512Z,982.39
2023-10-26T00:28:51.502Z,982.41
2023-10-26T00:29:51.521Z,982.41
2023-10-26T00:30:51.496Z,982.48
2023-10-26T00:31:51.460Z,982.42
2023-10-26T00:32:51.484Z,982.41
2023-10-26T00:33:51.480Z,982.34
2023-10-26T00:34:51.439Z,982.42
2023-10-26T00:35:51.459Z,982.42
2023-10-26T00:36:51.429Z,982.44
2023-10-26T00:37:51.411Z,982.38
2023-10-26T00:38:51.413Z,982.38
2023-10-26T00:39:51.387Z,982.43
2023-10-26T00:40:51.370Z,982.40
2023-10-26T00:41:51.427Z,982.44
2023-10-26T00:42:51.389Z,982.42
2023-10-26T00:43:51.349Z,982.43
2023-10-26T00:44:51.356Z,982.43
2023-10-26T00:45:51.303Z,982.42
2023-10-26T00:46:51.304Z,982.46
2023-10-26T00:47:51.428Z,982.43
2023-10-26T00:48:51.512Z,982.46
2023-10-26T00:49:51.270Z,982.42
2023-10-26T00:50:51.353Z,982.42
2023-10-26T00:51:51.245Z,982.42
2023-10-26T00:52:51.231Z,982.40
2023-10-26T00:53:51.292Z,982.40
2023-10-26T00:54:51.229Z,982.36
2023-10-26T00:55:51.201Z,982.38
2023-10-26T00:56:51.241Z,982.37
2023-10-26T00:57:51.186Z,982.41
2023-10-26T00:58:51.166Z,982.49
2023-10-26T00:59:51.227Z,982.42
2023-10-26T01:00:51.222Z,982.46
2023-10-26T01:01:51.159Z,982.41
2023-10-26T01:02:51.173Z,982.43
2023-10-26T01:03:51.112Z,982.47
2023-10-26T01:04:51.109Z,982.51
2023-10-26T01:05:51.108Z,982.54
2023-10-26T01:06:51.092Z,982.49
2023-10-26T01:07:51.089Z,982.47
2023-10-26T01:08:51.111Z,982.50
2023-10-26T01:09:51.087Z,982.52
2023-10-26T01:10:51.070Z,982.58
2023-10-26T01:11:51.138Z,982.54
2023-10-26T01:12:51.075Z,982.57
2023-10-26T01:13:51.017Z,982.59
2023-10-26T01:14:51.039Z,982.61
2023-10-26T01:15:51.005Z,982.58
2023-10-26T01:16:50.983Z,982.65
2023-10-26T01:17:51.030Z,982.65
2023-10-26T01:18:51.097Z,982.66
2023-10-26T01:19:50.970Z,982.66
2023-10-26T01:20:50.963Z,982.72
2023-10-26T01:21:50.954Z,982.68
2023-10-26T01:22:50.927Z,982.68
2023-10-26T01:23:50.974Z,982.69
2023-10-26T01:24:50.898Z,982.69
2023-10-26T01:25:50.904Z,982.78
2023-10-26T01:26:51.047Z,982.80
2023-10-26T01:27:50.881Z,982.78
2023-10-26T01:28:50.903Z,982.80
2023-10-26T01:29:50.957Z,982.77
2023-10-26T01:30:50.836Z,982.78
2023-10-26T01:31:50.832Z,982.85
2023-10-26T01:32:50.899Z,982.84
2023-10-26T01:33:50.871Z,982.84
2023-10-26T01:34:50.829Z,982.79
2023-10-26T01:35:50.847Z,982.80
2023-10-26T01:36:50.773Z,982.80
2023-10-26T01:37:50.800Z,982.85
2023-10-26T01:38:50.842Z,982.78
2023-10-26T01:39:50.763Z,982.84
2023-10-26T01:40:50.764Z,982.83
2023-10-26T01:41:50.858Z,982.82
2023-10-26T01:42:50.753Z,982.88
2023-10-26T01:43:50.710Z,982.86
2023-10-26T01:44:50.725Z,982.86
2023-10-26T01:45:50.687Z,982.86
2023-10-26T01:46:50.691Z,982.86
2023-10-26T01:47:50.726Z,982.90
2023-10-26T01:48:50.763Z,982.91
2023-10-26T01:49:50.654Z,982.93
2023-10-26T01:50:50.683Z,982.96
2023-10-26T01:51:50.616Z,982.91
2023-10-26T01:52:50.598Z,982.92
2023-10-26T01:53:50.637Z,982.92
2023-10-26T01:54:50.580Z,983.01
2023-10-26T01:55:50.581Z,982.96
2023-10-26T01:56:50.579Z,982.93
2023-10-26T01:57:50.548Z,982.91
2023-10-26T01:58:50.553Z,982.91
2023-10-26T01:59:50.529Z,982.93
2023-10-26T02:00:50.543Z,982.92
2023-10-26T02:01:50.516Z,982.92
2023-10-26T02:02:50.597Z,982.95
2023-10-26T02:03:50.502Z,982.88
2023-10-26T02:04:50.475Z,982.88
2023-10-26T02:05:50.668Z,982.91
2023-10-26T02:06:50.601Z,982.88
2023-10-26T02:07:50.446Z,982.93
2023-10-26T02:08:50.455Z,982.91
2023-10-26T02:09:50.426Z,982.96
2023-10-26T02:10:50.417Z,982.96
2023-10-26T02:11:50.408Z,982.99
2023-10-26T02:12:50.471Z,983.00
2023-10-26T02:13:50.373Z,983.00
2023-10-26T02:14:50.410Z,983.05
2023-10-26T02:15:50.354Z,983.06
2023-10-26T02:16:50.359Z,983.08
2023-10-26T02:17:50.504Z,983.07
2023-10-26T02:18:50.388Z,983.09
2023-10-26T02:19:50.339Z,983.11
2023-10-26T02:20:50.358Z,983.10
2023-10-26T02:21:50.326Z,983.08
2023-10-26T02:22:50.294Z,983.11
2023-10-26T02:23:50.340Z,983.08
2023-10-26T02:24:50.267Z,983.10
2023-10-26T02:25:50.273Z,983.10
2023-10-26T02:26:50.385Z,983.14
2023-10-26T02:27:50.257Z,983.10
2023-10-26T02:28:50.232Z,983.12
2023-10-26T02:29:50.247Z,983.21
2023-10-26T02:30:50.249Z,983.21
2023-10-26T02:31:50.232Z,983.21
2023-10-26T02:32:50.332Z,983.24
2023-10-26T02:33:50.247Z,983.23
2023-10-26T02:34:50.197Z,983.28
2023-10-26T02:35:50.216Z,983.27
2023-10-26T02:36:50.130Z,983.24
2023-10-26T02:37:50.126Z,983.25
2023-10-26T02:38:50.186Z,983.23
2023-10-26T02:39:50.173Z,983.18
2023-10-26T02:40:50.113Z,983.27
2023-10-26T02:41:50.082Z,983.23
2023-10-26T02:42:50.086Z,983.25
2023-10-26T02:43:50.067Z,983.25
2023-10-26T02:44:50.053Z,983.28
2023-10-26T02:45:50.111Z,983.32
2023-10-26T02:46:50.046Z,983.25
2023-10-26T02:47:50.150Z,983.33
2023-10-26T02:48:50.027Z,983.34
2023-10-26T02:49:50.043Z,983.34
2023-10-26T02:50:49.994Z,983.35
2023-10-26T02:51:50.011Z,983.42
2023-10-26T02:52:49.959Z,983.41
2023-10-26T02:53:49.956Z,983.42
2023-10-26T02:54:49.964Z,983.36
2023-10-26T02:55:49.939Z,983.37
2023-10-26T02:56:49.937Z,983.37
2023-10-26T02:57:49.956Z,983.36
2023-10-26T02:58:49.941Z,983.38
2023-10-26T02:59:49.896Z,983.41
2023-10-26T03:00:49.883Z,983.41
2023-10-26T03:01:49.882Z,983.39
2023-10-26T03:02:49.973Z,983.43
2023-10-26T03:03:49.918Z,983.40
2023-10-26T03:04:49.858Z,983.45
2023-10-26T03:05:49.830Z,983.47
2023-10-26T03:06:49.822Z,983.47
2023-10-26T03:07:49.829Z,983.45
2023-10-26T03:08:49.798Z,983.55
2023-10-26T03:09:49.875Z,983.57
2023-10-26T03:10:49.782Z,983.56
2023-10-26T03:11:49.811Z,983.62
2023-10-26T03:12:49.870Z,983.61
2023-10-26T03:13:49.761Z,983.66
2023-10-26T03:14:49.748Z,983.64
2023-10-26T03:15:49.733Z,983.62
2023-10-26T03:16:49.773Z,983.64
2023-10-26T03:17:49.735Z,983.66
2023-10-26T03:18:49.773Z,983.68
2023-10-26T03:19:49.700Z,983.65
2023-10-26T03:20:49.725Z,983.69
2023-10-26T03:21:49.681Z,983.71
2023-10-26T03:22:49.655Z,983.67
2023-10-26T03:23:49.673Z,983.68
2023-10-26T03:24:49.645Z,983.69
2023-10-26T03:25:49.658Z,983.72
2023-10-26T03:26:49.622Z,983.70
2023-10-26T03:27:49.607Z,983.75
2023-10-26T03:28:49.600Z,983.75
2023-10-26T03:29:49.597Z,983.73
2023-10-26T03:30:49.606Z,983.66
2023-10-26T03:31:49.609Z,983.70
2023-10-26T03:32:49.727Z,983.73
2023-10-26T03:33:49.614Z,983.69
2023-10-26T03:34:49.599Z,983.74
2023-10-26T03:35:49.542Z,983.77
2023-10-26T03:36:49.563Z,983.73
2023-10-26T03:37:49.509Z,983.73
2023-10-26T03:38:49.500Z,983.76
2023-10-26T03:39:49.502Z,983.76
2023-10-26T03:40:49.480Z,983.73
2023-10-26T03:41:49.514Z,983.75
2023-10-26T03:42:49.453Z,983.79
2023-10-26T03:43:49.442Z,983.73
2023-10-26T03:44:49.435Z,983.71
2023-10-26T03:45:49.433Z,983.77
2023-10-26T03:46:49.410Z,983.75
2023-10-26T03:47:49.497Z,983.77
2023-10-26T03:48:49.405Z,983.81
2023-10-26T03:49:49.372Z,983.84
2023-10-26T03:50:49.404Z,983.76
2023-10-26T03:51:49.422Z,983.83
2023-10-26T03:52:49.350Z,983.79
2023-10-26T03:53:49.417Z,983.81
2023-10-26T03:54:49.328Z,983.84
2023-10-26T03:55:49.305Z,983.83
2023-10-26T03:56:49.351Z,983.84
2023-10-26T03:57:49.295Z,983.82
2023-10-26T03:58:49.290Z,983.88
2023-10-26T03:59:49.257Z,983.89
2023-10-26T04:00:49.247Z,983.91
2023-10-26T04:01:49.296Z,983.93
2023-10-26T04:02:49.382Z,983.95
2023-10-26T04:03:49.379Z,983.91
2023-10-26T04:04:49.215Z,983.95
2023-10-26T04:05:49.225Z,983.93
2023-10-26T04:06:49.210Z,983.90
2023-10-26T04:07:49.184Z,983.94
2023-10-26T04:08:49.183Z,983.97
2023-10-26T04:09:49.155Z,983.95
2023-10-26T04:10:49.144Z,983.94
2023-10-26T04:11:49.152Z,983.96
2023-10-26T04:12:49.142Z,983.98
2023-10-26T04:13:49.116Z,983.98
2023-10-26T04:14:49.156Z,983.98
2023-10-26T04:15:49.152Z,984.03
2023-10-26T04:16:49.146Z,984.00
2023-10-26T04:17:49.138Z,983.97
2023-10-26T04:18:49.124Z,984.00
2023-10-26T04:19:49.044Z,984.05
2023-10-26T04:20:49.055Z,984.05
2023-10-26T04:21:49.052Z,984.07
2023-10-26T04:22:49.027Z,984.10
2023-10-26T04:23:49.029Z,984.05
2023-10-26T04:24:49.010Z,984.07
2023-10-26T04:25:54.569Z,984.07
2023-10-26T04:26:49.968Z,984.09
2023-10-26T04:27:48.965Z,984.13
2023-10-26T04:28:52.247Z,984.17
2023-10-26T04:29:48.977Z,984.15
2023-10-26T04:30:48.937Z,984.20
2023-10-26T04:31:48.975Z,984.25
2023-10-26T04:32:48.988Z,984.22
2023-10-26T04:33:48.997Z,984.24
2023-10-26T04:34:48.909Z,984.25
2023-10-26T04:35:48.897Z,984.24
2023-10-26T04:36:48.928Z,984.25
2023-10-26T04:37:48.874Z,984.23
2023-10-26T04:38:48.883Z,984.21
2023-10-26T04:39:48.862Z,984.23
2023-10-26T04:40:48.832Z,984.19
2023-10-26T04:41:48.817Z,984.21
2023-10-26T04:42:48.811Z,984.19
2023-10-26T04:43:48.806Z,984.15
2023-10-26T04:44:48.798Z,984.17
2023-10-26T04:45:48.835Z,984.20
2023-10-26T04:46:49.975Z,984.24
2023-10-26T04:47:48.836Z,984.26
2023-10-26T04:48:48.787Z,984.25
2023-10-26T04:49:48.750Z,984.25
2023-10-26T04:50:48.725Z,984.27
2023-10-26T04:51:48.791Z,984.29
2023-10-26T04:52:48.729Z,984.25
2023-10-26T04:53:50.133Z,984.25
2023-10-26T04:54:48.719Z,984.28
2023-10-26T04:55:48.680Z,984.27
2023-10-26T04:56:48.687Z,984.29
2023-10-26T04:57:48.681Z,984.24
2023-10-26T04:58:48.683Z,984.25
2023-10-26T04:59:48.643Z,984.25
2023-10-26T05:00:48.632Z,984.28
2023-10-26T05:01:48.642Z,984.27
2023-10-26T05:02:48.616Z,984.30
2023-10-26T05:03:48.604Z,984.29
2023-10-26T05:04:48.599Z,984.32
2023-10-26T05:05:48.570Z,984.29
2023-10-26T05:06:48.749Z,984.28
2023-10-26T05:07:48.570Z,984.28
2023-10-26T05:08:48.523Z,984.30
2023-10-26T05:09:48.515Z,984.28
2023-10-26T05:10:48.531Z,984.32
2023-10-26T05:11:48.492Z,984.30
2023-10-26T05:12:48.501Z,984.28
2023-10-26T05:13:48.467Z,984.30
2023-10-26T05:14:48.458Z,984.28
2023-10-26T05:15:48.440Z,984.37
2023-10-26T05:16:48.452Z,984.30
2023-10-26T05:17:48.467Z,984.31
2023-10-26T05:18:48.455Z,984.33
2023-10-26T05:19:48.398Z,984.32
2023-10-26T05:20:48.392Z,984.35
2023-10-26T05:21:48.393Z,984.27
2023-10-26T05:22:48.378Z,984.29
2023-10-26T05:23:48.424Z,984.29
2023-10-26T05:24:48.360Z,984.25
2023-10-26T05:25:48.334Z,984.25
2023-10-26T05:26:48.372Z,984.20
2023-10-26T05:27:48.339Z,984.23
2023-10-26T05:28:48.328Z,984.28
2023-10-26T05:29:48.297Z,984.23
2023-10-26T05:30:48.296Z,984.26
2023-10-26T05:31:48.322Z,984.32
2023-10-26T05:32:48.271Z,984.35
2023-10-26T05:33:48.300Z,984.37
2023-10-26T05:34:48.297Z,984.35
2023-10-26T05:35:48.285Z,984.36
2023-10-26T05:36:48.220Z,984.37
2023-10-26T05:37:48.210Z,984.40
2023-10-26T05:38:48.210Z,984.44
2023-10-26T05:39:48.185Z,984.37
2023-10-26T05:40:48.511Z,984.43
2023-10-26T05:41:48.332Z,984.45
2023-10-26T05:42:48.168Z,984.41
2023-10-26T05:43:48.145Z,984.40
2023-10-26T05:44:48.126Z,984.40
2023-10-26T05:45:48.352Z,984.44
2023-10-26T05:46:48.101Z,984.39
2023-10-26T05:47:48.113Z,984.41
2023-10-26T05:48:48.105Z,984.38
2023-10-26T05:49:48.094Z,984.33
2023-10-26T05:50:48.074Z,984.40
2023-10-26T05:51:48.082Z,984.39
2023-10-26T05:52:48.072Z,984.42
2023-10-26T05:53:48.059Z,984.42
2023-10-26T05:54:48.012Z,984.41
2023-10-26T05:55:48.009Z,984.40
2023-10-26T05:56:48.096Z,984.42
2023-10-26T05:57:47.986Z,984.41
2023-10-26T05:58:47.995Z,984.44
2023-10-26T05:59:47.978Z,984.44
2023-10-26T06:00:47.977Z,984.46
2023-10-26T06:01:47.997Z,984.48
2023-10-26T06:02:48.061Z,984.52
2023-10-26T06:03:47.930Z,984.50
2023-10-26T06:04:47.919Z,984.53
2023-10-26T06:05:47.904Z,984.55
2023-10-26T06:06:47.893Z,984.57
2023-10-26T06:07:47.879Z,984.58
2023-10-26T06:08:47.889Z,984.57
2023-10-26T06:09:47.871Z,984.59
2023-10-26T06:10:47.871Z,984.59
2023-10-26T06:11:47.853Z,984.61
2023-10-26T06:12:47.828Z,984.59
2023-10-26T06:13:49.506Z,984.63
2023-10-26T06:14:47.900Z,984.62
2023-10-26T06:15:47.878Z,984.61
2023-10-26T06:16:47.816Z,984.67
2023-10-26T06:17:47.804Z,984.65
2023-10-26T06:18:47.820Z,984.72
2023-10-26T06:19:47.748Z,984.70
2023-10-26T06:20:47.735Z,984.71
2023-10-26T06:21:47.751Z,984.72
2023-10-26T06:22:47.797Z,984.72
2023-10-26T06:23:47.715Z,984.73
2023-10-26T06:24:47.703Z,984.71
2023-10-26T06:25:47.688Z,984.73
2023-10-26T06:26:47.702Z,984.75
2023-10-26T06:27:47.683Z,984.78
2023-10-26T06:28:47.674Z,984.75
2023-10-26T06:29:47.680Z,984.79
2023-10-26T06:30:47.649Z,984.76
2023-10-26T06:31:47.665Z,984.75
2023-10-26T06:32:47.668Z,984.76
2023-10-26T06:33:47.626Z,984.72
2023-10-26T06:34:47.596Z,984.75
2023-10-26T06:35:47.656Z,984.75
2023-10-26T06:36:47.575Z,984.72
2023-10-26T06:37:49.549Z,984.73
2023-10-26T06:38:47.550Z,984.76
2023-10-26T06:39:47.534Z,984.76
2023-10-26T06:40:47.556Z,984.83
2023-10-26T06:41:47.548Z,984.81
2023-10-26T06:42:47.503Z,984.86
2023-10-26T06:43:47.502Z,984.88
2023-10-26T06:44:47.505Z,984.94
2023-10-26T06:45:47.500Z,984.97
2023-10-26T06:46:47.524Z,984.99
2023-10-26T06:47:47.548Z,984.96
2023-10-26T06:48:47.471Z,984.98
2023-10-26T06:49:47.434Z,985.07
2023-10-26T06:50:47.437Z,985.02
2023-10-26T06:51:47.428Z,985.00
2023-10-26T06:52:47.422Z,985.05
2023-10-26T06:53:47.392Z,985.04
2023-10-26T06:54:47.459Z,985.01
2023-10-26T06:55:47.366Z,985.05
2023-10-26T06:56:47.365Z,984.98
2023-10-26T06:57:47.385Z,984.97
2023-10-26T06:58:47.345Z,985.00
2023-10-26T06:59:47.328Z,984.97
2023-10-26T07:00:52.264Z,984.91
2023-10-26T07:02:09.594Z,984.92
2023-10-26T07:02:48.379Z,984.88
2023-10-26T07:03:47.386Z,984.95
2023-10-26T07:04:47.543Z,984.92
2023-10-26T07:05:47.279Z,984.92
2023-10-26T07:06:47.302Z,984.92
2023-10-26T07:07:47.280Z,984.91
2023-10-26T07:08:47.536Z,984.91
2023-10-26T07:09:47.299Z,984.98
2023-10-26T07:10:47.317Z,984.95
2023-10-26T07:11:47.232Z,984.97
2023-10-26T07:12:47.235Z,984.95
2023-10-26T07:13:47.230Z,984.95
2023-10-26T07:14:47.192Z,984.97
2023-10-26T07:15:47.222Z,984.93
2023-10-26T07:16:47.188Z,985.03
2023-10-26T07:17:47.266Z,984.97
2023-10-26T07:18:47.255Z,985.02
2023-10-26T07:19:47.122Z,984.99
2023-10-26T07:20:47.138Z,985.04
2023-10-26T07:21:47.204Z,985.00
2023-10-26T07:22:47.135Z,985.05
2023-10-26T07:23:47.098Z,985.04
2023-10-26T07:24:47.160Z,985.02
2023-10-26T07:25:48.499Z,985.06
2023-10-26T07:26:47.079Z,985.05
2023-10-26T07:27:47.066Z,985.09
2023-10-26T07:28:47.047Z,985.07
2023-10-26T07:29:47.057Z,985.07
2023-10-26T07:30:47.018Z,985.07
2023-10-26T07:31:49.529Z,985.05
2023-10-26T07:32:47.085Z,985.08
2023-10-26T07:33:47.035Z,985.07
2023-10-26T07:34:46.976Z,985.07
2023-10-26T07:35:46.947Z,985.02
2023-10-26T07:36:47.009Z,985.02
2023-10-26T07:37:55.197Z,985.01
2023-10-26T07:39:46.349Z,985.01
2023-10-26T07:39:49.059Z,984.99
2023-10-26T07:40:46.919Z,985.03
2023-10-26T07:42:08.760Z,985.04
2023-10-26T07:42:47.957Z,985.05
2023-10-26T07:43:48.466Z,984.96
2023-10-26T07:44:47.178Z,985.09
2023-10-26T07:45:46.914Z,985.08
2023-10-26T07:46:46.833Z,985.07
2023-10-26T07:47:46.852Z,985.07
2023-10-26T07:48:46.900Z,985.11
2023-10-26T07:49:46.817Z,985.08
2023-10-26T07:50:46.806Z,985.08
2023-10-26T07:51:46.799Z,985.09
2023-10-26T07:52:46.784Z,985.05
2023-10-26T07:53:46.822Z,985.03
2023-10-26T07:54:46.974Z,985.03
2023-10-26T07:55:46.752Z,985.03
2023-10-26T07:56:46.726Z,985.01
2023-10-26T07:57:46.979Z,984.99
2023-10-26T07:58:46.749Z,985.04
2023-10-26T07:59:46.700Z,985.02
2023-10-26T08:00:46.707Z,985.07
2023-10-26T08:01:46.838Z,985.02
2023-10-26T08:02:46.780Z,985.05
2023-10-26T08:03:46.687Z,985.00
2023-10-26T08:04:46.757Z,985.03
2023-10-26T08:05:46.628Z,984.99
2023-10-26T08:06:46.678Z,985.06
2023-10-26T08:07:46.730Z,985.06
2023-10-26T08:08:46.603Z,985.07
2023-10-26T08:09:46.601Z,985.11
2023-10-26T08:10:46.609Z,985.12
2023-10-26T08:11:46.580Z,985.09
2023-10-26T08:12:46.615Z,985.16
2023-10-26T08:13:46.550Z,985.16
2023-10-26T08:16:10.578Z,985.17
2023-10-26T08:16:29.151Z,985.15
2023-10-26T08:16:48.050Z,985.11
2023-10-26T08:17:46.640Z,985.19
2023-10-26T08:18:46.572Z,985.20
2023-10-26T08:19:46.546Z,985.16
2023-10-26T08:20:46.477Z,985.20
2023-10-26T08:21:46.494Z,985.18
2023-10-26T08:22:46.531Z,985.14
2023-10-26T08:23:46.441Z,985.16
2023-10-26T08:24:46.467Z,985.18
2023-10-26T08:25:46.464Z,985.16
2023-10-26T08:26:46.440Z,985.19
2023-10-26T08:27:46.405Z,985.08
2023-10-26T08:28:46.538Z,985.08
2023-10-26T08:29:46.383Z,985.09
2023-10-26T08:30:46.362Z,985.11
2023-10-26T08:31:46.455Z,985.08
2023-10-26T08:32:46.524Z,985.10
2023-10-26T08:33:46.377Z,985.12
2023-10-26T08:34:46.625Z,985.14
2023-10-26T08:35:46.327Z,985.12
2023-10-26T08:36:51.185Z,985.14
2023-10-26T08:37:47.320Z,985.17
2023-10-26T08:38:46.352Z,985.15
2023-10-26T08:39:46.302Z,985.10
2023-10-26T08:40:46.311Z,985.14
2023-10-26T08:41:46.248Z,985.12
2023-10-26T08:42:46.289Z,985.06
2023-10-26T08:43:46.287Z,985.14
2023-10-26T08:44:46.548Z,985.14
2023-10-26T08:45:46.238Z,985.15
2023-10-26T08:46:46.337Z,985.14
2023-10-26T08:47:46.278Z,985.16
2023-10-26T08:48:46.191Z,985.17
2023-10-26T08:49:53.005Z,985.18
2023-10-26T08:50:47.166Z,985.21
2023-10-26T08:51:46.142Z,985.20
2023-10-26T08:52:46.191Z,985.19
2023-10-26T08:53:46.119Z,985.27
2023-10-26T08:54:46.195Z,985.25
2023-10-26T08:55:46.159Z,985.29
2023-10-26T08:56:46.091Z,985.31
2023-10-26T08:57:46.088Z,985.28
2023-10-26T08:58:46.111Z,985.27
2023-10-26T08:59:46.059Z,985.23
2023-10-26T09:00:46.068Z,985.33
2023-10-26T09:01:46.100Z,985.28
2023-10-26T09:02:46.169Z,985.28
2023-10-26T09:03:46.109Z,985.32
2023-10-26T09:04:46.167Z,985.27
2023-10-26T09:05:46.049Z,985.22
2023-10-26T09:06:46.022Z,985.30
2023-10-26T09:07:46.102Z,985.27
2023-10-26T09:08:45.979Z,985.27
2023-10-26T09:09:46.014Z,985.31
2023-10-26T09:10:46.029Z,985.24
2023-10-26T09:11:45.966Z,985.29
2023-10-26T09:12:45.922Z,985.24
2023-10-26T09:13:45.957Z,985.25
2023-10-26T09:14:45.908Z,985.31
2023-10-26T09:15:45.910Z,985.28
2023-10-26T09:16:45.949Z,985.33
2023-10-26T09:17:45.903Z,985.35
2023-10-26T09:18:45.871Z,985.39
2023-10-26T09:19:45.876Z,985.41
2023-10-26T09:20:45.846Z,985.43
2023-10-26T09:21:45.875Z,985.38
2023-10-26T09:22:45.857Z,985.36
2023-10-26T09:23:45.811Z,985.37
2023-10-26T09:24:46.171Z,985.37
2023-10-26T09:25:45.859Z,985.37
2023-10-26T09:26:45.809Z,985.35
2023-10-26T09:27:45.818Z,985.34
2023-10-26T09:28:45.822Z,985.40
2023-10-26T09:29:45.755Z,985.44
2023-10-26T09:30:45.736Z,985.43
2023-10-26T09:31:45.863Z,985.42
2023-10-26T09:32:45.870Z,985.44
2023-10-26T09:33:46.439Z,985.38
2023-10-26T09:34:45.893Z,985.43
2023-10-26T09:35:45.689Z,985.41
2023-10-26T09:36:45.701Z,985.43
2023-10-26T09:37:45.679Z,985.46
2023-10-26T09:38:45.677Z,985.46
2023-10-26T09:39:45.924Z,985.43
2023-10-26T09:40:45.679Z,985.39
2023-10-26T09:41:45.654Z,985.41
2023-10-26T09:42:45.644Z,985.46
2023-10-26T09:43:45.635Z,985.42
2023-10-26T09:44:45.731Z,985.44
2023-10-26T09:45:45.607Z,985.45
2023-10-26T09:46:45.705Z,985.50
2023-10-26T09:47:45.643Z,985.55
2023-10-26T09:48:45.646Z,985.55
2023-10-26T09:49:45.850Z,985.58
2023-10-26T09:50:45.535Z,985.59
2023-10-26T09:51:45.537Z,985.60
2023-10-26T09:52:45.565Z,985.60
2023-10-26T09:53:48.330Z,985.58
2023-10-26T09:54:45.750Z,985.57
2023-10-26T09:55:45.483Z,985.59
2023-10-26T09:56:45.456Z,985.59
2023-10-26T09:57:45.527Z,985.56
2023-10-26T09:58:45.464Z,985.60
2023-10-26T09:59:45.485Z,985.58
2023-10-26T10:00:45.440Z,985.59
2023-10-26T10:01:45.489Z,985.62
2023-10-26T10:02:45.481Z,985.69
2023-10-26T10:03:45.440Z,985.72
2023-10-26T10:04:45.579Z,985.72
2023-10-26T10:05:45.402Z,985.73
2023-10-26T10:06:45.401Z,985.76
2023-10-26T10:07:45.361Z,985.77
2023-10-26T10:08:45.351Z,985.76
2023-10-26T10:09:45.352Z,985.77
2023-10-26T10:10:45.314Z,985.80
2023-10-26T10:11:45.301Z,985.82
2023-10-26T10:12:45.350Z,985.77
2023-10-26T10:13:45.313Z,985.80
2023-10-26T10:14:45.290Z,985.80
2023-10-26T10:15:45.375Z,985.82
2023-10-26T10:16:45.332Z,985.91
2023-10-26T10:17:45.282Z,985.88
2023-10-26T10:18:45.309Z,985.82
2023-10-26T10:19:45.235Z,985.84
2023-10-26T10:20:45.289Z,985.85
2023-10-26T10:21:45.258Z,985.83
2023-10-26T10:22:45.194Z,985.83
2023-10-26T10:23:45.183Z,985.87
2023-10-26T10:24:45.309Z,985.88
2023-10-26T10:25:45.163Z,985.85
2023-10-26T10:26:45.158Z,985.88
2023-10-26T10:27:45.195Z,985.89
2023-10-26T10:28:45.138Z,985.93
2023-10-26T10:29:45.112Z,985.88
2023-10-26T10:30:45.128Z,985.88
2023-10-26T10:31:45.101Z,985.87
2023-10-26T10:32:45.236Z,985.85
2023-10-26T10:33:45.113Z,985.89
2023-10-26T10:34:45.337Z,985.84
2023-10-26T10:35:45.105Z,985.85
2023-10-26T10:36:45.124Z,985.79
2023-10-26T10:37:45.030Z,985.78
2023-10-26T10:38:45.049Z,985.80
2023-10-26T10:39:45.057Z,985.77
2023-10-26T10:40:44.993Z,985.76
2023-10-26T10:41:44.990Z,985.69
2023-10-26T10:42:45.025Z,985.72
2023-10-26T10:43:45.052Z,985.75
2023-10-26T10:44:45.141Z,985.75
2023-10-26T10:45:44.956Z,985.75
2023-10-26T10:46:44.942Z,985.73
2023-10-26T10:47:44.958Z,985.77
2023-10-26T10:48:44.921Z,985.72
2023-10-26T10:49:44.862Z,985.74
2023-10-26T10:50:44.890Z,985.75
2023-10-26T10:51:44.944Z,985.65
2023-10-26T10:52:44.832Z,985.65
2023-10-26T10:53:44.822Z,985.67
2023-10-26T10:54:53.368Z,985.66
2023-10-26T10:55:45.865Z,985.59
2023-10-26T10:56:44.819Z,985.59
2023-10-26T10:57:44.876Z,985.60
2023-10-26T10:58:44.811Z,985.61
2023-10-26T10:59:44.764Z,985.62
2023-10-26T11:00:44.750Z,985.67
2023-10-26T11:01:44.758Z,985.66
2023-10-26T11:02:44.776Z,985.64
2023-10-26T11:03:44.867Z,985.63
2023-10-26T11:04:53.814Z,985.62
2023-10-26T11:05:45.744Z,985.64
2023-10-26T11:06:44.763Z,985.60
2023-10-26T11:07:44.692Z,985.61
2023-10-26T11:08:44.696Z,985.62
2023-10-26T11:09:44.736Z,985.63
2023-10-26T11:10:45.192Z,985.61
2023-10-26T11:11:44.693Z,985.58
2023-10-26T11:12:44.690Z,985.60
2023-10-26T11:13:44.639Z,985.65
2023-10-26T11:14:44.691Z,985.63
2023-10-26T11:15:44.659Z,985.62
2023-10-26T11:16:44.662Z,985.57
2023-10-26T11:17:44.676Z,985.58
2023-10-26T11:18:44.798Z,985.56
2023-10-26T11:19:44.614Z,985.56
2023-10-26T11:20:44.574Z,985.59
2023-10-26T11:21:44.603Z,985.56
2023-10-26T11:22:44.551Z,985.53
2023-10-26T11:23:44.574Z,985.59
2023-10-26T11:24:44.842Z,985.59
2023-10-26T11:25:44.527Z,985.62
2023-10-26T11:26:44.514Z,985.59
2023-10-26T11:27:44.672Z,985.58
2023-10-26T11:28:44.500Z,985.59
2023-10-26T11:29:44.504Z,985.53
2023-10-26T11:30:44.509Z,985.52
2023-10-26T11:31:44.517Z,985.55
2023-10-26T11:32:44.485Z,985.54
2023-10-26T11:33:44.446Z,985.54
2023-10-26T11:34:44.783Z,985.49
2023-10-26T11:35:44.431Z,985.51
2023-10-26T11:36:44.490Z,985.54
2023-10-26T11:37:44.620Z,985.49
2023-10-26T11:38:44.410Z,985.57
2023-10-26T11:39:44.408Z,985.55
2023-10-26T11:40:44.448Z,985.49
2023-10-26T11:41:44.382Z,985.43
2023-10-26T11:42:44.436Z,985.49
2023-10-26T11:43:44.483Z,985.46
2023-10-26T11:44:44.689Z,985.45
2023-10-26T11:45:44.393Z,985.41
2023-10-26T11:46:44.355Z,985.48
2023-10-26T11:47:44.354Z,985.47
2023-10-26T11:48:44.331Z,985.43
2023-10-26T11:49:44.349Z,985.49
2023-10-26T11:50:44.421Z,985.42
2023-10-26T11:51:47.516Z,985.42
2023-10-26T11:52:45.254Z,985.34
2023-10-26T11:53:44.246Z,985.38
2023-10-26T11:54:44.355Z,985.36
2023-10-26T11:55:44.238Z,985.42
2023-10-26T11:56:44.228Z,985.49
2023-10-26T11:57:44.226Z,985.47
2023-10-26T11:59:44.284Z,985.50
2023-10-26T12:00:44.185Z,985.42
2023-10-26T12:01:44.172Z,985.49
2023-10-26T12:02:44.181Z,985.51
2023-10-26T12:03:44.185Z,985.45
2023-10-26T12:04:44.115Z,985.51
2023-10-26T12:05:44.130Z,985.48
2023-10-26T12:06:44.247Z,985.46
2023-10-26T12:07:44.088Z,985.48
2023-10-26T12:08:44.081Z,985.47
2023-10-26T12:09:44.249Z,985.51
2023-10-26T12:10:44.067Z,985.50
2023-10-26T12:11:44.040Z,985.45
2023-10-26T12:12:44.040Z,985.45
2023-10-26T12:13:44.021Z,985.37
2023-10-26T12:14:44.195Z,985.44
2023-10-26T12:15:44.047Z,985.36
2023-10-26T12:16:44.025Z,985.39
2023-10-26T12:17:44.011Z,985.37
2023-10-26T12:18:44.031Z,985.39
2023-10-26T12:19:44.148Z,985.42
2023-10-26T12:20:43.947Z,985.43
2023-10-26T12:21:44.031Z,985.48
2023-10-26T12:22:44.080Z,985.49
2023-10-26T12:23:43.917Z,985.48
2023-10-26T12:24:43.957Z,985.51
2023-10-26T12:25:43.902Z,985.54
2023-10-26T12:26:43.885Z,985.50
2023-10-26T12:28:21.890Z,985.55
2023-10-26T12:28:44.947Z,985.55
2023-10-26T12:29:44.004Z,985.60